Time;durP1;ratioP1;P1;durP2;ratioP2;P2;SDS_P1;SDS_P2;PMS_P1;PMS_P2;Temp;Humidity;BMP_temperature;BMP_pressure;BME280_temperature;BME280_humidity;BME280_pressure;Samples;Min_cycle;Max_cycle;Signal;HPM_P1;HPM_P2
2021/05/24 00:00:45;;;;;;;6.95;4.35;;;7.70;99.90;;;;;;5070554;28;20021;-59
2021/05/24 00:03:11;;;;;;;5.20;4.68;;;7.70;99.90;;;;;;5070818;28;20017;-58
2021/05/24 00:05:37;;;;;;;7.72;4.57;;;7.80;99.90;;;;;;5070324;28;20135;-59
2021/05/24 00:08:03;;;;;;;5.65;4.13;;;7.80;99.90;;;;;;5070537;28;20031;-59
2021/05/24 00:10:31;;;;;;;5.35;4.10;;;7.80;99.90;;;;;;5070406;28;20043;-59
2021/05/24 00:13:01;;;;;;;3.88;3.47;;;7.70;99.90;;;;;;5069196;28;20029;-59
2021/05/24 00:15:36;;;;;;;5.40;3.85;;;7.80;99.90;;;;;;5070313;28;20025;-59
2021/05/24 00:18:02;;;;;;;5.78;3.67;;;7.80;99.90;;;;;;5070335;28;20391;-58
2021/05/24 00:20:31;;;;;;;4.97;3.85;;;7.70;99.90;;;;;;5070262;28;20028;-59
2021/05/24 00:22:57;;;;;;;6.10;4.07;;;7.70;99.90;;;;;;5070412;28;20017;-60
2021/05/24 00:25:22;;;;;;;4.60;3.65;;;7.70;99.90;;;;;;5070383;28;20095;-59
2021/05/24 00:27:48;;;;;;;3.85;3.13;;;7.60;99.90;;;;;;5068971;28;20039;-56
2021/05/24 00:30:15;;;;;;;5.47;4.10;;;7.60;99.90;;;;;;5063787;28;20029;-59
2021/05/24 00:32:40;;;;;;;4.55;3.33;;;7.50;99.90;;;;;;5070381;28;20033;-58
2021/05/24 00:35:07;;;;;;;5.35;4.00;;;7.40;99.90;;;;;;5070122;28;20097;-60
2021/05/24 00:37:33;;;;;;;3.58;3.10;;;7.30;99.90;;;;;;5057403;28;20036;-59
2021/05/24 00:39:59;;;;;;;4.95;3.53;;;7.20;99.90;;;;;;5069285;28;20037;-59
2021/05/24 00:42:24;;;;;;;3.97;3.00;;;7.10;99.90;;;;;;5069159;28;20091;-59
2021/05/24 00:44:50;;;;;;;4.63;3.20;;;7.10;99.90;;;;;;5069631;28;20033;-59
2021/05/24 00:47:15;;;;;;;4.88;3.10;;;7.00;99.90;;;;;;5069181;28;20161;-58
2021/05/24 00:49:44;;;;;;;3.22;2.78;;;6.90;99.90;;;;;;5069936;28;20024;-59
2021/05/24 00:52:11;;;;;;;3.53;2.75;;;6.80;99.90;;;;;;5071154;28;20028;-59
2021/05/24 00:54:37;;;;;;;3.72;3.08;;;6.80;99.90;;;;;;5068867;28;20025;-57
2021/05/24 00:57:03;;;;;;;3.63;2.75;;;6.80;99.90;;;;;;5068796;28;20020;-58
2021/05/24 00:59:28;;;;;;;5.30;3.42;;;6.70;99.90;;;;;;5069981;28;20032;-59
2021/05/24 01:01:54;;;;;;;5.53;3.03;;;6.70;99.90;;;;;;5070142;28;20031;-60
2021/05/24 01:04:20;;;;;;;4.32;3.33;;;6.60;99.90;;;;;;5070190;28;20185;-58
2021/05/24 01:06:47;;;;;;;6.40;3.05;;;6.60;99.90;;;;;;5071797;28;20095;-58
2021/05/24 01:09:15;;;;;;;5.50;4.15;;;6.50;99.90;;;;;;5073828;28;20035;-60
2021/05/24 01:11:40;;;;;;;3.88;3.33;;;6.50;99.90;;;;;;5071153;28;20378;-60
2021/05/24 01:14:06;;;;;;;6.03;3.00;;;6.50;99.90;;;;;;5073276;28;20025;-59
2021/05/24 01:16:32;;;;;;;4.82;3.42;;;6.50;99.90;;;;;;5073598;28;20024;-59
2021/05/24 01:18:58;;;;;;;3.88;3.00;;;6.50;99.90;;;;;;5073155;28;20029;-59
2021/05/24 01:21:24;;;;;;;4.30;3.28;;;6.50;99.90;;;;;;5073619;28;20057;-59
2021/05/24 01:23:51;;;;;;;3.85;3.22;;;6.50;99.90;;;;;;5071818;28;20074;-59
2021/05/24 01:26:18;;;;;;;4.68;3.25;;;6.50;99.90;;;;;;5072203;28;20032;-60
2021/05/24 01:28:44;;;;;;;4.13;3.22;;;6.40;99.90;;;;;;5073334;28;20040;-59
2021/05/24 01:31:10;;;;;;;4.53;2.65;;;6.40;99.90;;;;;;5066079;28;20036;-59
2021/05/24 01:33:37;;;;;;;3.58;2.40;;;6.30;99.90;;;;;;5073333;28;20353;-59
2021/05/24 01:36:05;;;;;;;5.28;3.30;;;6.20;99.90;;;;;;5072699;28;20028;-58
2021/05/24 01:38:32;;;;;;;4.45;2.88;;;6.20;99.90;;;;;;5072821;28;20039;-59
2021/05/24 01:40:58;;;;;;;3.80;2.65;;;6.30;99.90;;;;;;5071703;28;20508;-59
2021/05/24 01:43:28;;;;;;;4.03;2.65;;;6.40;99.90;;;;;;5071785;28;20039;-59
2021/05/24 01:45:54;;;;;;;4.57;3.15;;;6.40;99.90;;;;;;5072954;28;20024;-59
2021/05/24 01:48:20;;;;;;;4.18;3.28;;;6.40;99.90;;;;;;5072981;28;20380;-59
2021/05/24 01:50:46;;;;;;;5.53;3.05;;;6.50;99.90;;;;;;5076302;28;20032;-60
2021/05/24 01:53:11;;;;;;;4.43;3.03;;;6.50;99.90;;;;;;5093494;28;20032;-56
2021/05/24 01:55:37;;;;;;;4.35;3.38;;;6.50;99.90;;;;;;5094771;28;20094;-59
2021/05/24 01:58:04;;;;;;;3.95;3.15;;;6.50;99.90;;;;;;5092058;28;20127;-58
2021/05/24 02:00:29;;;;;;;4.03;3.17;;;6.50;99.90;;;;;;5094676;28;20062;-58
2021/05/24 02:02:55;;;;;;;4.30;3.00;;;6.60;99.90;;;;;;5094768;28;20188;-59
2021/05/24 02:05:23;;;;;;;4.13;2.97;;;6.50;99.90;;;;;;5094440;28;20024;-59
2021/05/24 02:07:49;;;;;;;5.10;3.22;;;6.60;99.90;;;;;;5094624;28;20081;-59
2021/05/24 02:10:23;;;;;;;3.78;3.08;;;6.50;99.90;;;;;;5094504;28;20036;-59
2021/05/24 02:12:48;;;;;;;4.78;4.03;;;6.60;99.90;;;;;;5093309;28;20028;-59
2021/05/24 02:15:19;;;;;;;9.40;3.72;;;6.60;99.90;;;;;;5082328;28;20438;-59
2021/05/24 02:17:45;;;;;;;3.67;2.72;;;6.60;99.90;;;;;;5073645;28;20029;-60
2021/05/24 02:20:11;;;;;;;4.65;3.08;;;6.50;99.90;;;;;;5073966;28;20074;-57
2021/05/24 02:22:38;;;;;;;3.25;2.83;;;6.50;99.90;;;;;;5074268;28;20059;-59
2021/05/24 02:25:05;;;;;;;3.58;2.50;;;6.50;99.90;;;;;;5072745;28;20028;-58
2021/05/24 02:27:31;;;;;;;3.75;2.88;;;6.50;99.90;;;;;;5071462;28;20012;-58
2021/05/24 02:29:57;;;;;;;3.28;2.50;;;6.40;99.90;;;;;;5073989;28;20111;-59
2021/05/24 02:32:23;;;;;;;4.60;2.80;;;6.40;99.90;;;;;;5073712;28;20079;-58
2021/05/24 02:34:48;;;;;;;3.50;2.80;;;6.40;99.90;;;;;;5074008;28;20403;-59
2021/05/24 02:37:14;;;;;;;4.32;2.78;;;6.40;99.90;;;;;;5073926;28;20108;-59
2021/05/24 02:39:40;;;;;;;4.40;2.33;;;6.40;99.90;;;;;;5073636;28;20066;-59
2021/05/24 02:42:06;;;;;;;4.28;2.88;;;6.40;99.90;;;;;;5072318;28;20095;-59
2021/05/24 02:44:31;;;;;;;4.10;3.38;;;6.30;99.90;;;;;;5072491;28;20025;-59
2021/05/24 02:46:56;;;;;;;5.63;2.65;;;6.20;99.90;;;;;;5073463;28;20025;-58
2021/05/24 02:49:22;;;;;;;3.25;2.30;;;6.10;99.90;;;;;;5073505;28;20066;-59
2021/05/24 02:51:48;;;;;;;3.97;2.67;;;6.00;99.90;;;;;;5084144;28;20111;-58
2021/05/24 02:54:13;;;;;;;3.80;3.17;;;6.00;99.90;;;;;;5091699;28;20107;-59
2021/05/24 02:56:39;;;;;;;2.58;2.13;;;6.00;99.90;;;;;;5092207;28;20398;-60
2021/05/24 02:59:05;;;;;;;3.90;2.53;;;6.00;99.90;;;;;;5093520;28;20035;-57
2021/05/24 03:01:32;;;;;;;4.13;2.60;;;5.90;99.90;;;;;;5093585;28;20016;-58
2021/05/24 03:03:59;;;;;;;4.22;2.72;;;5.90;99.90;;;;;;5093521;28;20020;-59
2021/05/24 03:06:25;;;;;;;3.38;2.80;;;5.90;99.90;;;;;;5093520;28;20024;-59
2021/05/24 03:08:51;;;;;;;4.38;2.50;;;5.80;99.90;;;;;;5093647;28;20024;-58
2021/05/24 03:11:22;;;;;;;5.78;2.80;;;5.90;99.90;;;;;;5092094;28;20028;-58
2021/05/24 03:13:48;;;;;;;3.88;2.58;;;5.80;99.90;;;;;;5093718;28;20020;-59
2021/05/24 03:16:14;;;;;;;3.47;2.65;;;5.80;99.90;;;;;;5052858;28;20032;-59
2021/05/24 03:18:39;;;;;;;4.43;3.00;;;5.90;99.90;;;;;;5052990;28;20084;-59
2021/05/24 03:21:05;;;;;;;6.47;2.95;;;6.00;99.90;;;;;;5052932;28;20040;-59
2021/05/24 03:23:30;;;;;;;4.40;2.83;;;6.00;99.90;;;;;;5053154;28;20025;-59
2021/05/24 03:25:56;;;;;;;4.30;3.05;;;6.00;99.90;;;;;;5068145;28;20145;-59
2021/05/24 03:28:22;;;;;;;7.13;3.70;;;6.10;99.90;;;;;;5051009;28;20025;-59
2021/05/24 03:30:47;;;;;;;5.30;2.97;;;6.10;99.90;;;;;;5052631;28;20028;-58
2021/05/24 03:33:13;;;;;;;4.03;2.65;;;6.10;99.90;;;;;;5052680;28;20082;-59
2021/05/24 03:35:38;;;;;;;5.13;3.17;;;6.20;99.90;;;;;;5053063;28;20464;-60
2021/05/24 03:38:04;;;;;;;4.68;3.65;;;6.30;99.90;;;;;;5052523;28;20064;-59
2021/05/24 03:40:29;;;;;;;4.18;2.45;;;6.30;99.90;;;;;;5052655;28;20032;-59
2021/05/24 03:42:55;;;;;;;6.28;3.30;;;6.40;99.90;;;;;;5051382;28;20025;-59
2021/05/24 03:45:22;;;;;;;3.72;2.83;;;6.50;99.90;;;;;;5052607;28;20025;-59
2021/05/24 03:47:49;;;;;;;4.45;3.38;;;6.50;99.90;;;;;;5052487;28;20119;-59
2021/05/24 03:50:15;;;;;;;3.58;3.00;;;6.60;99.90;;;;;;5052508;28;20075;-59
2021/05/24 03:52:40;;;;;;;5.80;3.67;;;6.80;99.90;;;;;;5088262;28;20103;-59
2021/05/24 03:55:07;;;;;;;3.70;2.75;;;7.80;99.90;;;;;;5092465;28;20127;-59
2021/05/24 03:57:33;;;;;;;3.75;2.53;;;8.90;99.90;;;;;;5091350;28;20032;-59
2021/05/24 03:59:59;;;;;;;3.38;2.75;;;9.90;99.90;;;;;;5092635;28;20028;-59
2021/05/24 04:02:24;;;;;;;2.40;2.20;;;10.80;99.90;;;;;;5091329;28;20027;-59
2021/05/24 04:04:50;;;;;;;4.88;2.63;;;11.70;99.90;;;;;;5091457;28;20311;-59
2021/05/24 04:07:22;;;;;;;2.17;1.98;;;12.40;99.90;;;;;;5091183;28;20020;-59
2021/05/24 04:09:48;;;;;;;2.35;2.00;;;13.20;99.90;;;;;;5092559;28;20490;-59
2021/05/24 04:12:13;;;;;;;3.03;1.50;;;14.00;99.90;;;;;;5091467;28;20097;-59
2021/05/24 04:14:40;;;;;;;2.05;1.90;;;14.80;99.90;;;;;;5085469;28;20024;-59
2021/05/24 04:17:06;;;;;;;1.90;1.70;;;15.40;99.90;;;;;;5072232;28;20108;-59
2021/05/24 04:19:32;;;;;;;1.70;1.38;;;15.90;99.90;;;;;;5072358;28;20120;-59
2021/05/24 04:21:57;;;;;;;3.03;1.73;;;16.40;99.90;;;;;;5072391;28;20035;-59
2021/05/24 04:24:23;;;;;;;1.55;1.35;;;17.00;98.60;;;;;;5072398;28;20447;-59
2021/05/24 04:26:48;;;;;;;1.58;1.48;;;17.50;95.00;;;;;;5071258;28;20493;-60
2021/05/24 04:29:14;;;;;;;1.60;1.50;;;18.10;94.10;;;;;;5072068;28;20213;-59
2021/05/24 04:31:39;;;;;;;1.88;1.50;;;18.60;91.50;;;;;;5072316;28;20029;-60
2021/05/24 04:34:06;;;;;;;2.85;1.60;;;19.20;88.20;;;;;;5072315;28;20487;-60
2021/05/24 04:36:31;;;;;;;1.70;1.38;;;19.80;85.00;;;;;;5072143;28;20078;-59
2021/05/24 04:38:57;;;;;;;2.05;1.35;;;20.40;80.90;;;;;;5072207;28;20020;-59
2021/05/24 04:41:23;;;;;;;2.20;1.48;;;20.50;79.50;;;;;;5074319;28;20070;-58
2021/05/24 04:43:51;;;;;;;1.95;1.75;;;20.80;77.90;;;;;;5076085;28;20111;-60
2021/05/24 04:46:16;;;;;;;1.73;1.60;;;21.10;75.50;;;;;;5074596;28;20016;-59
2021/05/24 04:48:42;;;;;;;1.30;1.20;;;21.60;74.40;;;;;;5076043;28;20552;-59
2021/05/24 04:51:07;;;;;;;1.85;1.70;;;22.10;73.50;;;;;;5080811;28;20024;-60
2021/05/24 04:53:33;;;;;;;1.23;1.13;;;22.40;70.30;;;;;;5096204;28;20024;-59
2021/05/24 04:55:59;;;;;;;1.42;1.20;;;22.60;69.80;;;;;;5095646;28;20044;-60
2021/05/24 04:58:25;;;;;;;1.75;1.65;;;23.10;69.30;;;;;;5095310;28;20069;-60
2021/05/24 05:00:50;;;;;;;3.63;1.75;;;23.80;67.30;;;;;;5096068;28;20031;-60
2021/05/24 05:03:16;;;;;;;1.48;1.35;;;23.90;64.50;;;;;;5095734;28;20107;-60
2021/05/24 05:05:42;;;;;;;1.52;1.30;;;24.00;64.30;;;;;;5096003;28;20016;-60
2021/05/24 05:08:08;;;;;;;2.90;1.60;;;24.50;64.10;;;;;;5095810;28;20537;-60
2021/05/24 05:10:34;;;;;;;1.73;1.40;;;25.00;60.10;;;;;;5095888;28;20028;-60
2021/05/24 05:12:59;;;;;;;1.50;1.05;;;25.20;60.10;;;;;;5094648;28;20356;-59
2021/05/24 05:15:25;;;;;;;1.60;1.50;;;25.50;60.30;;;;;;5082056;28;20035;-59
2021/05/24 05:17:50;;;;;;;1.23;1.13;;;25.80;59.80;;;;;;5075260;28;20468;-59
2021/05/24 05:20:16;;;;;;;1.23;1.13;;;26.00;59.20;;;;;;5075293;28;20029;-60
2021/05/24 05:22:41;;;;;;;2.75;1.20;;;26.10;59.00;;;;;;5075237;28;20028;-57
2021/05/24 05:25:08;;;;;;;1.60;1.40;;;26.30;58.70;;;;;;5074094;28;20016;-59
2021/05/24 05:27:34;;;;;;;1.73;1.48;;;26.60;57.70;;;;;;5073972;28;20025;-59
2021/05/24 05:29:59;;;;;;;1.40;1.30;;;27.00;57.70;;;;;;5075111;28;20040;-60
2021/05/24 05:32:25;;;;;;;1.85;1.40;;;27.70;53.30;;;;;;5074952;28;20074;-60
2021/05/24 05:34:50;;;;;;;1.38;1.20;;;27.80;53.80;;;;;;5075166;28;20096;-60
2021/05/24 05:37:18;;;;;;;3.38;1.52;;;27.50;52.50;;;;;;5074984;28;20113;-59
2021/05/24 05:39:43;;;;;;;1.45;1.35;;;27.60;52.40;;;;;;5074982;28;20025;-58
2021/05/24 05:42:09;;;;;;;1.50;1.40;;;27.60;52.10;;;;;;5073814;28;20376;-60
2021/05/24 05:44:35;;;;;;;1.40;1.15;;;27.30;51.40;;;;;;5074825;28;20032;-59
2021/05/24 05:47:00;;;;;;;2.05;1.40;;;27.40;51.80;;;;;;5074816;28;20371;-60
2021/05/24 05:49:26;;;;;;;1.15;1.10;;;27.70;51.50;;;;;;5074667;28;20029;-60
2021/05/24 05:51:51;;;;;;;2.13;1.40;;;28.40;51.00;;;;;;5085161;28;20035;-58
2021/05/24 05:54:17;;;;;;;1.65;1.27;;;28.70;49.50;;;;;;5094945;28;20494;-59
2021/05/24 05:56:42;;;;;;;1.67;1.42;;;28.40;47.80;;;;;;5093952;28;20031;-60
2021/05/24 05:59:08;;;;;;;1.40;1.30;;;28.40;49.30;;;;;;5094719;28;20467;-59
2021/05/24 06:01:33;;;;;;;2.00;1.67;;;28.70;48.50;;;;;;5094743;28;20042;-61
2021/05/24 06:03:59;;;;;;;1.40;1.20;;;28.50;47.20;;;;;;5094832;28;20035;-60
2021/05/24 06:06:24;;;;;;;1.98;1.20;;;28.30;47.60;;;;;;5094743;28;20039;-61
2021/05/24 06:08:50;;;;;;;1.30;1.17;;;28.70;47.90;;;;;;5094730;28;20028;-60
2021/05/24 06:11:15;;;;;;;1.45;1.30;;;29.20;46.60;;;;;;5092502;28;20032;-60
2021/05/24 06:13:41;;;;;;;1.95;1.30;;;29.10;46.90;;;;;;5094172;28;20028;-60
2021/05/24 06:16:07;;;;;;;2.88;1.40;;;29.50;46.10;;;;;;5075321;28;20447;-60
2021/05/24 06:18:32;;;;;;;2.55;1.17;;;29.70;46.40;;;;;;5074065;28;20103;-60
2021/05/24 06:20:58;;;;;;;1.50;1.20;;;29.70;45.50;;;;;;5074444;28;20024;-60
2021/05/24 06:23:24;;;;;;;1.23;0.98;;;29.80;44.90;;;;;;5074030;28;20032;-60
2021/05/24 06:25:49;;;;;;;1.92;1.10;;;30.20;44.80;;;;;;5074237;28;20051;-60
2021/05/24 06:28:15;;;;;;;1.15;1.05;;;30.30;42.40;;;;;;5072848;28;20032;-60
2021/05/24 06:30:41;;;;;;;2.83;1.30;;;30.20;42.70;;;;;;5074094;28;20060;-60
2021/05/24 06:33:07;;;;;;;1.05;0.95;;;30.50;42.60;;;;;;5073971;28;20035;-60
2021/05/24 06:35:33;;;;;;;1.30;1.02;;;31.30;43.00;;;;;;5073944;28;20029;-60
2021/05/24 06:37:59;;;;;;;3.60;1.00;;;31.20;41.40;;;;;;5073886;28;20031;-61
2021/05/24 06:40:25;;;;;;;2.03;1.00;;;31.10;41.00;;;;;;5072492;28;20460;-60
2021/05/24 06:42:50;;;;;;;0.90;0.80;;;31.00;41.80;;;;;;5072673;28;20062;-58
2021/05/24 06:45:18;;;;;;;2.78;0.95;;;31.40;42.10;;;;;;5073741;28;20024;-59
2021/05/24 06:47:44;;;;;;;1.65;0.95;;;32.10;40.90;;;;;;5073690;28;20024;-60
2021/05/24 06:50:10;;;;;;;1.58;0.80;;;32.60;41.10;;;;;;5073622;28;20029;-60
2021/05/24 06:52:36;;;;;;;1.67;0.70;;;33.00;39.80;;;;;;5089453;28;20028;-61
2021/05/24 06:55:02;;;;;;;1.98;0.95;;;33.30;38.50;;;;;;5093802;28;20051;-60
2021/05/24 06:57:27;;;;;;;1.05;0.98;;;33.30;38.70;;;;;;5092635;28;20028;-60
2021/05/24 06:59:53;;;;;;;1.38;0.77;;;33.10;38.30;;;;;;5093627;28;20032;-59
2021/05/24 07:02:18;;;;;;;2.05;1.10;;;33.50;38.50;;;;;;5092319;28;20024;-60
2021/05/24 07:04:44;;;;;;;0.60;0.60;;;33.90;38.20;;;;;;5092670;28;20054;-59
2021/05/24 07:07:10;;;;;;;3.33;1.23;;;34.50;37.90;;;;;;5093569;28;20028;-58
2021/05/24 07:09:36;;;;;;;1.02;0.93;;;33.80;36.10;;;;;;5093603;28;20031;-60
2021/05/24 07:12:01;;;;;;;2.25;0.80;;;33.50;37.20;;;;;;5092433;28;20052;-60
2021/05/24 07:14:27;;;;;;;1.38;0.75;;;34.00;36.90;;;;;;5087755;28;20498;-58
2021/05/24 07:16:54;;;;;;;4.28;1.02;;;34.20;36.80;;;;;;5071931;28;20500;-60
2021/05/24 07:19:20;;;;;;;2.00;0.70;;;34.40;35.80;;;;;;5072928;28;20040;-59
2021/05/24 07:21:45;;;;;;;0.95;0.70;;;34.70;36.40;;;;;;5073076;28;20029;-60
2021/05/24 07:24:11;;;;;;;1.42;0.77;;;35.20;36.10;;;;;;5071661;28;20052;-60
2021/05/24 07:26:36;;;;;;;0.70;0.70;;;35.50;35.60;;;;;;5069186;28;20035;-60
2021/05/24 07:29:02;;;;;;;2.80;0.73;;;35.60;35.40;;;;;;5072761;28;20013;-60
2021/05/24 07:31:28;;;;;;;0.63;0.63;;;35.20;33.70;;;;;;5072778;28;20024;-60
2021/05/24 07:33:53;;;;;;;1.05;0.60;;;35.00;35.10;;;;;;5072569;28;20519;-60
2021/05/24 07:36:19;;;;;;;1.10;0.60;;;35.10;34.80;;;;;;5072980;28;20029;-60
2021/05/24 07:38:44;;;;;;;0.63;0.60;;;35.50;34.60;;;;;;5072596;28;20518;-60
2021/05/24 07:41:10;;;;;;;8.70;0.80;;;35.80;34.70;;;;;;5071120;28;20029;-60
2021/05/24 07:43:36;;;;;;;1.52;0.80;;;35.90;33.30;;;;;;5072598;28;20040;-59
2021/05/24 07:46:02;;;;;;;1.67;0.90;;;35.90;32.40;;;;;;5072798;28;20028;-60
2021/05/24 07:48:27;;;;;;;3.08;0.77;;;35.60;32.50;;;;;;5072549;28;20192;-58
2021/05/24 07:50:53;;;;;;;2.70;0.50;;;35.10;33.20;;;;;;5075708;28;20356;-57
2021/05/24 07:53:19;;;;;;;1.45;0.47;;;35.10;33.60;;;;;;5092779;28;20032;-58
2021/05/24 07:55:44;;;;;;;0.73;0.63;;;35.40;33.60;;;;;;5092297;28;20151;-57
2021/05/24 07:58:09;;;;;;;0.80;0.50;;;35.20;32.50;;;;;;5091721;28;20031;-57
2021/05/24 08:00:35;;;;;;;0.38;0.38;;;35.20;32.40;;;;;;5092555;28;20030;-57
2021/05/24 08:03:01;;;;;;;1.15;0.57;;;35.60;32.60;;;;;;5092511;28;20073;-58
2021/05/24 08:05:26;;;;;;;1.30;0.60;;;35.30;32.10;;;;;;5092807;28;20475;-58
2021/05/24 08:07:52;;;;;;;1.42;0.60;;;34.80;31.70;;;;;;5092531;28;20424;-57
2021/05/24 08:10:18;;;;;;;0.85;0.38;;;34.10;32.20;;;;;;5092651;28;20031;-58
2021/05/24 08:12:45;;;;;;;1.17;0.60;;;33.50;32.50;;;;;;5091000;28;20103;-58
2021/05/24 08:15:22;;;;;;;6.45;0.80;;;33.80;32.30;;;;;;5082520;28;20020;-58
2021/05/24 08:17:47;;;;;;;1.50;0.52;;;34.10;32.60;;;;;;5076201;28;20032;-57
2021/05/24 08:20:14;;;;;;;0.90;0.60;;;34.00;32.00;;;;;;5076549;28;20027;-57
2021/05/24 08:22:40;;;;;;;0.50;0.50;;;34.40;32.20;;;;;;5076278;28;20020;-58
2021/05/24 08:25:07;;;;;;;2.28;0.70;;;35.00;32.40;;;;;;5076381;28;20027;-57
2021/05/24 08:27:33;;;;;;;1.00;0.70;;;34.80;31.80;;;;;;5075372;28;20021;-57
2021/05/24 08:29:58;;;;;;;7.75;0.70;;;35.00;32.20;;;;;;5076424;28;20033;-58
2021/05/24 08:32:24;;;;;;;1.33;0.70;;;35.20;32.00;;;;;;5074915;28;20048;-57
2021/05/24 08:34:50;;;;;;;0.68;0.47;;;33.40;31.70;;;;;;5076122;28;20472;-56
2021/05/24 08:37:15;;;;;;;1.02;0.55;;;32.10;32.80;;;;;;5076255;28;20070;-58
2021/05/24 08:39:43;;;;;;;0.93;0.60;;;32.60;32.90;;;;;;5076000;28;20116;-60
2021/05/24 08:42:09;;;;;;;1.65;0.80;;;33.00;32.50;;;;;;5074887;28;20052;-60
2021/05/24 08:44:37;;;;;;;0.73;0.50;;;32.50;32.10;;;;;;5075954;28;20023;-60
2021/05/24 08:47:03;;;;;;;0.70;0.60;;;33.20;32.60;;;;;;5075933;28;20017;-60
2021/05/24 08:49:30;;;;;;;1.23;0.70;;;33.30;31.60;;;;;;5075768;28;20035;-60
2021/05/24 08:51:55;;;;;;;0.40;0.40;;;34.10;31.90;;;;;;5087678;28;20024;-60
2021/05/24 08:54:21;;;;;;;1.25;0.50;;;34.60;31.60;;;;;;5095779;28;20409;-60
2021/05/24 08:56:47;;;;;;;1.67;0.40;;;34.80;31.20;;;;;;5094762;28;20067;-60
2021/05/24 08:59:12;;;;;;;0.68;0.52;;;34.70;31.40;;;;;;5095788;28;20064;-60
2021/05/24 09:01:38;;;;;;;2.13;0.52;;;33.40;31.40;;;;;;5096102;28;20017;-60
2021/05/24 09:04:05;;;;;;;1.17;0.55;;;32.10;32.10;;;;;;5095905;28;20020;-60
2021/05/24 09:06:42;;;;;;;4.95;0.88;;;30.50;32.40;;;;;;5095983;28;20028;-59
2021/05/24 09:09:14;;;;;;;2.08;0.60;;;30.60;33.00;;;;;;5095855;28;20380;-60
2021/05/24 09:11:41;;;;;;;2.42;0.70;;;29.70;32.40;;;;;;5094597;28;20024;-60
2021/05/24 09:14:21;;;;;;;2.83;0.80;;;28.50;34.10;;;;;;5091777;28;20024;-59
2021/05/24 09:16:57;;;;;;;2.72;0.52;;;28.50;35.30;;;;;;5074132;28;20029;-60
2021/05/24 09:19:24;;;;;;;1.08;0.80;;;27.80;35.60;;;;;;5075077;28;20025;-60
2021/05/24 09:21:50;;;;;;;2.33;0.60;;;27.20;35.50;;;;;;5075304;28;20047;-59
2021/05/24 09:24:21;;;;;;;1.45;0.70;;;26.60;36.20;;;;;;5075291;28;20020;-60
2021/05/24 09:26:47;;;;;;;0.93;0.50;;;26.00;37.40;;;;;;5072941;28;20464;-59
2021/05/24 09:29:12;;;;;;;1.40;0.70;;;25.50;37.70;;;;;;5075066;28;20078;-60
2021/05/24 09:31:39;;;;;;;0.65;0.50;;;25.00;38.40;;;;;;5073887;28;20387;-59
2021/05/24 09:34:06;;;;;;;1.00;0.60;;;24.50;38.90;;;;;;5074886;28;20023;-59
2021/05/24 09:36:33;;;;;;;0.90;0.52;;;24.00;39.90;;;;;;5075230;28;20028;-59
2021/05/24 09:39:09;;;;;;;1.30;0.55;;;23.80;39.90;;;;;;5073557;28;20024;-60
2021/05/24 09:41:47;;;;;;;1.63;0.60;;;23.90;40.40;;;;;;5073651;28;20024;-60
2021/05/24 09:44:30;;;;;;;1.65;0.70;;;23.90;40.90;;;;;;5074843;28;20107;-60
2021/05/24 09:46:56;;;;;;;2.47;0.77;;;23.90;40.70;;;;;;5074969;28;20020;-59
2021/05/24 09:49:31;;;;;;;3.10;0.80;;;23.60;40.90;;;;;;5074705;28;20028;-59
2021/05/24 09:51:58;;;;;;;1.73;0.50;;;23.20;41.70;;;;;;5086642;28;20363;-60
2021/05/24 09:54:38;;;;;;;2.40;0.90;;;23.20;41.60;;;;;;5094851;28;20471;-60
2021/05/24 09:57:11;;;;;;;1.08;0.52;;;23.00;41.90;;;;;;5093726;28;20043;-59
2021/05/24 09:59:38;;;;;;;2.58;0.70;;;22.90;42.30;;;;;;5094647;28;20024;-58
2021/05/24 10:02:06;;;;;;;0.80;0.50;;;22.70;42.50;;;;;;5093587;28;20067;-59
2021/05/24 10:04:34;;;;;;;1.35;0.68;;;22.70;42.40;;;;;;5094667;28;20023;-60
2021/05/24 10:07:01;;;;;;;3.38;0.68;;;22.70;42.20;;;;;;5095018;28;20032;-60
2021/05/24 10:09:29;;;;;;;2.85;0.63;;;22.70;41.80;;;;;;5094483;28;20028;-59
2021/05/24 10:11:55;;;;;;;0.70;0.60;;;22.80;42.20;;;;;;5093373;28;20028;-60
2021/05/24 10:14:22;;;;;;;4.70;0.98;;;23.00;41.90;;;;;;5089991;28;20086;-59
2021/05/24 10:16:51;;;;;;;0.63;0.50;;;23.10;42.00;;;;;;5074262;28;20522;-59
2021/05/24 10:19:18;;;;;;;1.15;0.65;;;23.20;42.00;;;;;;5072646;28;20032;-60
2021/05/24 10:21:48;;;;;;;1.20;0.73;;;22.90;41.90;;;;;;5074487;28;20027;-59
2021/05/24 10:24:15;;;;;;;2.00;0.50;;;22.90;41.20;;;;;;5074163;28;20048;-60
2021/05/24 10:26:43;;;;;;;0.50;0.50;;;23.00;40.40;;;;;;5072901;28;20100;-60
2021/05/24 10:29:11;;;;;;;1.73;0.85;;;23.10;40.30;;;;;;5074088;28;20032;-60
2021/05/24 10:31:37;;;;;;;2.05;0.50;;;23.00;40.40;;;;;;5074161;28;20357;-60
2021/05/24 10:34:10;;;;;;;1.20;0.70;;;22.90;41.60;;;;;;5072488;28;20086;-60
2021/05/24 10:36:35;;;;;;;0.80;0.60;;;22.90;41.80;;;;;;5073913;28;20037;-59
2021/05/24 10:39:34;;;;;;;1.75;0.60;;;22.90;41.60;;;;;;5073408;28;20032;-57
2021/05/24 10:42:00;;;;;;;1.05;0.50;;;22.50;42.30;;;;;;5048707;28;20475;-59
2021/05/24 10:45:13;;;;;;;0.90;0.55;;;22.30;43.00;;;;;;5074065;28;20102;-58
2021/05/24 10:47:58;;;;;;;1.63;0.82;;;22.50;42.80;;;;;;5037795;28;20048;-60
2021/05/24 10:50:25;;;;;;;1.60;0.60;;;22.60;41.20;;;;;;5073541;28;20028;-54
2021/05/24 10:53:19;;;;;;;1.17;0.43;;;22.50;40.40;;;;;;5093155;28;20158;-56
2021/05/24 10:55:49;;;;;;;1.17;0.45;;;22.40;39.80;;;;;;5093531;28;20059;-57
2021/05/24 10:58:17;;;;;;;2.25;0.50;;;22.20;41.20;;;;;;5093384;28;20028;-55
2021/05/24 11:00:55;;;;;;;1.25;0.68;;;22.00;41.60;;;;;;5093809;28;20023;-57
2021/05/24 11:03:22;;;;;;;1.38;0.52;;;21.80;43.10;;;;;;5092472;28;20038;-57
2021/05/24 11:06:09;;;;;;;1.88;0.77;;;21.70;43.40;;;;;;5093126;28;20028;-56
2021/05/24 11:08:36;;;;;;;1.17;0.70;;;21.90;45.60;;;;;;5093630;28;20111;-57
2021/05/24 11:11:25;;;;;;;2.55;0.80;;;22.10;44.60;;;;;;5092100;28;20325;-57
2021/05/24 11:14:04;;;;;;;1.40;0.75;;;22.00;44.40;;;;;;5091668;28;20020;-57
2021/05/24 11:16:32;;;;;;;0.65;0.55;;;21.80;44.90;;;;;;5073160;28;20499;-60
2021/05/24 11:19:09;;;;;;;3.72;0.90;;;21.50;45.20;;;;;;5072871;28;20116;-58
2021/05/24 11:21:36;;;;;;;2.53;0.95;;;21.50;45.90;;;;;;5073076;28;20081;-60
2021/05/24 11:24:22;;;;;;;1.55;0.93;;;21.50;44.70;;;;;;5071181;28;20025;-60
2021/05/24 11:27:12;;;;;;;2.08;0.95;;;21.50;45.40;;;;;;5071748;28;20497;-59
2021/05/24 11:29:42;;;;;;;4.75;0.90;;;21.50;45.40;;;;;;5072879;28;20037;-56
2021/05/24 11:32:17;;;;;;;1.35;0.60;;;21.40;45.90;;;;;;5072785;28;20025;-58
2021/05/24 11:34:43;;;;;;;1.95;0.50;;;21.50;46.10;;;;;;5072875;28;20031;-59
2021/05/24 11:37:09;;;;;;;3.15;0.80;;;21.60;46.10;;;;;;5072597;28;20387;-59
2021/05/24 11:39:51;;;;;;;1.35;0.60;;;21.60;45.80;;;;;;5072670;28;20471;-58
2021/05/24 11:42:30;;;;;;;1.83;0.70;;;21.70;45.90;;;;;;5071595;28;20060;-59
2021/05/24 11:44:58;;;;;;;3.92;0.60;;;21.70;45.50;;;;;;5071312;28;20032;-59
2021/05/24 11:47:26;;;;;;;2.20;0.70;;;21.70;44.90;;;;;;5072682;28;20019;-59
2021/05/24 11:49:58;;;;;;;0.55;0.50;;;21.50;44.80;;;;;;5071989;28;20474;-59
2021/05/24 11:52:25;;;;;;;4.00;1.00;;;21.30;44.80;;;;;;5088151;28;20028;-59
2021/05/24 11:54:52;;;;;;;3.25;0.65;;;21.30;45.20;;;;;;5092613;28;20040;-60
2021/05/24 11:57:21;;;;;;;2.22;0.80;;;21.20;45.00;;;;;;5091620;28;20039;-57
2021/05/24 11:59:47;;;;;;;1.27;0.80;;;21.10;45.20;;;;;;5092586;28;20065;-57
2021/05/24 12:02:13;;;;;;;2.47;0.70;;;21.00;46.10;;;;;;5092618;28;20050;-56
2021/05/24 12:04:45;;;;;;;1.65;0.70;;;20.90;45.80;;;;;;5092670;28;20031;-59
2021/05/24 12:07:19;;;;;;;0.68;0.52;;;20.90;45.70;;;;;;5092561;28;20413;-60
2021/05/24 12:09:48;;;;;;;7.43;0.82;;;20.80;45.50;;;;;;5092611;28;20069;-59
2021/05/24 12:12:16;;;;;;;3.22;0.80;;;20.70;45.40;;;;;;5091285;28;20105;-60
2021/05/24 12:14:44;;;;;;;1.23;0.70;;;20.60;45.80;;;;;;5085102;28;20176;-59
2021/05/24 12:17:15;;;;;;;2.00;0.57;;;20.50;45.60;;;;;;5072387;28;20025;-59
2021/05/24 12:19:42;;;;;;;0.43;0.43;;;20.60;46.20;;;;;;5072179;28;20029;-59
2021/05/24 12:22:12;;;;;;;0.60;0.60;;;20.70;46.00;;;;;;5072182;28;20016;-59
2021/05/24 12:24:40;;;;;;;1.52;0.98;;;20.90;46.20;;;;;;5072405;28;20020;-59
2021/05/24 12:27:07;;;;;;;0.80;0.55;;;21.10;45.70;;;;;;5070923;28;20157;-58
2021/05/24 12:29:35;;;;;;;0.88;0.57;;;21.10;45.50;;;;;;5072353;28;20036;-59
2021/05/24 12:32:05;;;;;;;1.75;0.73;;;21.20;45.40;;;;;;5072139;28;20074;-60
2021/05/24 12:34:35;;;;;;;1.95;0.80;;;21.20;45.20;;;;;;5072377;28;20020;-59
2021/05/24 12:37:03;;;;;;;2.45;0.80;;;21.30;44.20;;;;;;5072064;28;20029;-57
2021/05/24 12:39:32;;;;;;;1.00;0.65;;;21.30;44.30;;;;;;5072275;28;20025;-60
2021/05/24 12:42:00;;;;;;;1.00;0.60;;;21.20;44.40;;;;;;5070670;28;20020;-59
2021/05/24 12:44:27;;;;;;;1.83;0.55;;;21.20;44.70;;;;;;5072204;28;20020;-58
2021/05/24 12:46:56;;;;;;;0.95;0.60;;;21.20;45.20;;;;;;5072032;28;20017;-60
2021/05/24 12:49:38;;;;;;;0.95;0.75;;;21.40;45.50;;;;;;5070866;28;20112;-60
2021/05/24 12:52:05;;;;;;;1.67;0.60;;;21.60;44.70;;;;;;5084594;28;20020;-60